createdAt,value
2022-08-31T00:00:48.046Z,101794.06
2022-08-31T00:03:32.618Z,101795.78
2022-08-31T00:06:00.460Z,101794.06
2022-08-31T00:08:27.113Z,101792.00
2022-08-31T00:10:55.294Z,101792.38
2022-08-31T00:13:25.529Z,101796.81
2022-08-31T00:15:53.241Z,101798.06
2022-08-31T00:18:20.077Z,101803.16
2022-08-31T00:20:47.059Z,101802.78
2022-08-31T00:23:14.752Z,101810.81
2022-08-31T00:25:42.448Z,101801.34
2022-08-31T00:28:10.012Z,101800.81
2022-08-31T00:30:36.591Z,101807.22
2022-08-31T00:33:03.341Z,101796.59
2022-08-31T00:35:30.596Z,101803.16
2022-08-31T00:37:57.397Z,101801.34
2022-08-31T00:40:24.240Z,101804.28
2022-08-31T00:42:50.764Z,101798.22
2022-08-31T00:45:17.413Z,101803.16
2022-08-31T00:47:43.844Z,101802.41
2022-08-31T00:50:12.335Z,101792.13
2022-08-31T00:52:41.014Z,101795.41
2022-08-31T00:55:07.581Z,101793.19
2022-08-31T00:57:35.319Z,101800.75
2022-08-31T01:00:04.070Z,101797.44
2022-08-31T01:02:31.619Z,101789.25
2022-08-31T01:04:58.030Z,101785.97
2022-08-31T01:07:24.814Z,101792.84
2022-08-31T01:09:55.460Z,101791.94
2022-08-31T01:12:22.170Z,101793.13
2022-08-31T01:14:48.654Z,101794.16
2022-08-31T01:17:15.112Z,101790.38
2022-08-31T01:19:53.692Z,101798.50
2022-08-31T01:22:55.624Z,101798.06
2022-08-31T01:25:22.174Z,101794.88
2022-08-31T01:27:48.621Z,101803.06
2022-08-31T01:30:21.026Z,101807.41
2022-08-31T01:32:47.490Z,101809.03
2022-08-31T01:35:13.867Z,101800.66
2022-08-31T01:37:40.224Z,101807.25
2022-08-31T01:40:07.265Z,101816.72
2022-08-31T01:42:34.313Z,101815.91
2022-08-31T01:45:01.056Z,101818.19
2022-08-31T01:47:27.394Z,101819.00
2022-08-31T01:49:55.321Z,101819.41
2022-08-31T01:52:24.303Z,101816.50
2022-08-31T01:54:54.025Z,101816.16
2022-08-31T01:57:21.768Z,101812.50
2022-08-31T02:00:01.175Z,101815.19
2022-08-31T02:02:27.594Z,101815.63
2022-08-31T02:04:54.052Z,101806.84
2022-08-31T02:07:20.535Z,101816.84
2022-08-31T02:09:46.877Z,101820.22
2022-08-31T02:12:13.253Z,101814.84
2022-08-31T02:14:39.651Z,101816.47
2022-08-31T02:17:06.013Z,101815.22
2022-08-31T02:19:32.351Z,101816.84
2022-08-31T02:21:59.107Z,101819.94
2022-08-31T02:24:25.562Z,101815.38
2022-08-31T02:26:53.963Z,101816.63
2022-08-31T02:29:20.570Z,101807.59
2022-08-31T02:31:46.987Z,101807.00
2022-08-31T02:34:14.026Z,101798.69
2022-08-31T02:36:42.601Z,101803.50
2022-08-31T02:39:08.954Z,101792.34
2022-08-31T02:41:35.369Z,101792.34
2022-08-31T02:44:02.393Z,101798.22
2022-08-31T02:46:28.794Z,101794.53
2022-08-31T02:48:55.177Z,101799.34
2022-08-31T02:51:21.534Z,101790.31
2022-08-31T02:53:47.912Z,101786.09
2022-08-31T02:56:14.394Z,101789.38
2022-08-31T02:58:41.109Z,101787.31
2022-08-31T03:01:07.490Z,101784.91
2022-08-31T03:03:34.781Z,101784.38
2022-08-31T03:06:01.614Z,101776.00
2022-08-31T03:08:28.306Z,101776.13
2022-08-31T03:10:57.726Z,101782.72
2022-08-31T03:13:24.061Z,101778.28
2022-08-31T03:15:50.480Z,101777.00
2022-08-31T03:18:16.833Z,101767.03
2022-08-31T03:20:43.187Z,101763.91
2022-08-31T03:23:09.631Z,101764.63
2022-08-31T03:25:36.271Z,101756.56
2022-08-31T03:28:06.786Z,101762.44
2022-08-31T03:30:33.267Z,101764.38
2022-08-31T03:33:02.689Z,101768.09
2022-08-31T03:35:29.515Z,101766.44
2022-08-31T03:37:56.339Z,101772.53
2022-08-31T03:40:22.966Z,101773.78
2022-08-31T03:42:49.982Z,101776.91
2022-08-31T03:45:16.595Z,101781.28
2022-08-31T03:47:44.874Z,101779.66
2022-08-31T03:50:12.081Z,101783.31
2022-08-31T03:52:38.726Z,101785.41
2022-08-31T03:55:05.672Z,101788.84
2022-08-31T03:57:32.206Z,101795.84
2022-08-31T03:59:58.637Z,101791.13
2022-08-31T04:02:25.084Z,101792.41
2022-08-31T04:04:52.489Z,101795.66
2022-08-31T04:07:19.101Z,101802.50
2022-08-31T04:09:47.825Z,101809.75
2022-08-31T04:12:15.060Z,101803.09
2022-08-31T04:14:41.464Z,101804.81
2022-08-31T04:17:11.728Z,101808.03
2022-08-31T04:19:38.560Z,101803.78
2022-08-31T04:22:04.928Z,101808.63
2022-08-31T04:24:31.284Z,101810.88
2022-08-31T04:26:59.062Z,101811.69
2022-08-31T04:29:25.379Z,101814.47
2022-08-31T04:31:51.751Z,101822.97
2022-08-31T04:34:18.180Z,101830.34
2022-08-31T04:36:45.366Z,101827.59
2022-08-31T04:39:12.365Z,101824.34
2022-08-31T04:41:40.490Z,101823.31
2022-08-31T04:44:07.422Z,101828.72
2022-08-31T04:46:35.417Z,101829.63
2022-08-31T04:49:01.881Z,101828.59
2022-08-31T04:51:30.938Z,101825.63
2022-08-31T04:53:57.731Z,101833.91
2022-08-31T04:56:28.628Z,101835.72
2022-08-31T04:58:57.048Z,101847.88
2022-08-31T05:01:26.247Z,101835.03
2022-08-31T05:03:55.054Z,101829.88
2022-08-31T05:06:22.360Z,101831.16
2022-08-31T05:08:52.138Z,101825.06
2022-08-31T05:11:24.270Z,101825.53
2022-08-31T05:13:52.635Z,101826.06
2022-08-31T05:16:19.643Z,101834.13
2022-08-31T05:18:47.206Z,101836.75
2022-08-31T05:21:20.484Z,101835.22
2022-08-31T05:23:48.487Z,101829.28
2022-08-31T05:26:21.549Z,101835.84
2022-08-31T05:28:49.984Z,101839.25
2022-08-31T05:31:16.643Z,101839.25
2022-08-31T05:33:43.832Z,101839.25
2022-08-31T05:36:11.294Z,101832.16
2022-08-31T05:38:37.889Z,101835.84
2022-08-31T05:41:06.076Z,101832.44
2022-08-31T05:43:32.600Z,101837.78
2022-08-31T05:45:59.075Z,101837.28
2022-08-31T05:48:30.056Z,101837.44
2022-08-31T05:50:59.830Z,101828.75
2022-08-31T05:53:27.082Z,101827.41
2022-08-31T05:56:03.963Z,101822.81
2022-08-31T05:58:30.517Z,101820.53
2022-08-31T06:00:57.271Z,101826.75
2022-08-31T06:03:23.647Z,101824.84
2022-08-31T06:05:53.082Z,101825.38
2022-08-31T06:08:19.796Z,101817.78
2022-08-31T06:10:54.123Z,101816.22
2022-08-31T06:13:21.019Z,101818.25
2022-08-31T06:15:47.689Z,101822.16
2022-08-31T06:18:14.095Z,101824.47
2022-08-31T06:20:40.461Z,101830.66
2022-08-31T06:23:08.338Z,101832.16
2022-08-31T06:25:36.604Z,101831.34
2022-08-31T06:28:07.258Z,101832.50
2022-08-31T06:30:54.350Z,101843.81
2022-08-31T06:33:21.562Z,101834.47
2022-08-31T06:35:48.139Z,101833.78
2022-08-31T06:38:14.497Z,101834.88
2022-08-31T06:40:40.936Z,101843.72
2022-08-31T06:43:07.812Z,101840.66
2022-08-31T06:45:34.211Z,101834.50
2022-08-31T06:48:00.791Z,101843.59
2022-08-31T06:50:27.248Z,101839.63
2022-08-31T06:52:55.551Z,101840.19
2022-08-31T06:55:22.199Z,101848.06
2022-08-31T06:57:48.688Z,101844.47
2022-08-31T07:00:15.315Z,101846.72
2022-08-31T07:02:41.743Z,101850.47
2022-08-31T07:05:11.458Z,101850.25
2022-08-31T07:07:40.213Z,101848.25
2022-08-31T07:10:10.307Z,101847.78
2022-08-31T07:12:36.764Z,101852.16
2022-08-31T07:15:03.358Z,101847.78
2022-08-31T07:17:29.768Z,101851.81
2022-08-31T07:19:56.215Z,101859.97
2022-08-31T07:22:22.747Z,101856.41
2022-08-31T07:24:49.151Z,101868.91
2022-08-31T07:27:16.527Z,101870.06
2022-08-31T07:29:43.058Z,101874.75
2022-08-31T07:32:10.751Z,101882.41
2022-08-31T07:34:37.319Z,101884.09
2022-08-31T07:37:22.932Z,101881.31
2022-08-31T07:40:08.483Z,101887.69
2022-08-31T07:42:39.862Z,101885.22
2022-08-31T07:45:10.169Z,101881.59
2022-08-31T07:47:46.067Z,101883.91
2022-08-31T07:50:13.885Z,101888.69
2022-08-31T07:52:47.083Z,101896.47
2022-08-31T07:55:15.113Z,101894.63
2022-08-31T07:57:44.080Z,101895.53
2022-08-31T08:00:12.917Z,101901.00
2022-08-31T08:02:39.812Z,101898.97
2022-08-31T08:05:07.480Z,101901.44
2022-08-31T08:07:35.270Z,101900.06
2022-08-31T08:10:02.640Z,101903.25
2022-08-31T08:12:29.054Z,101915.94
2022-08-31T08:14:58.969Z,101914.09
2022-08-31T08:17:25.361Z,101918.94
2022-08-31T08:19:51.782Z,101918.25
2022-08-31T08:22:35.674Z,101929.75
2022-08-31T08:25:06.939Z,101925.69
2022-08-31T08:27:33.924Z,101921.38
2022-08-31T08:30:00.332Z,101927.06
2022-08-31T08:32:26.868Z,101923.47
2022-08-31T08:34:53.271Z,101930.81
2022-08-31T08:37:31.031Z,101940.66
2022-08-31T08:40:06.829Z,101940.81
2022-08-31T08:42:33.519Z,101944.22
2022-08-31T08:44:59.954Z,101949.88
2022-08-31T08:47:37.636Z,101943.66
2022-08-31T08:50:07.195Z,101947.78
2022-08-31T08:52:43.882Z,101947.94
2022-08-31T08:55:12.292Z,101949.88
2022-08-31T08:57:40.290Z,101953.78
2022-08-31T09:00:13.015Z,101949.75
2022-08-31T09:02:57.989Z,101952.16
2022-08-31T09:05:34.977Z,101950.16
2022-08-31T09:08:01.402Z,101952.59
2022-08-31T09:10:38.970Z,101949.47
2022-08-31T09:13:25.608Z,101959.47
2022-08-31T09:15:56.201Z,101955.66
2022-08-31T09:18:26.347Z,101951.19
2022-08-31T09:21:01.824Z,101950.03
2022-08-31T09:23:29.922Z,101941.09
2022-08-31T09:25:58.463Z,101946.28
2022-08-31T09:28:36.175Z,101945.91
2022-08-31T09:31:03.097Z,101942.63
2022-08-31T09:33:31.444Z,101942.69
2022-08-31T09:36:41.003Z,101945.19
2022-08-31T09:39:15.017Z,101943.00
2022-08-31T09:41:42.066Z,101948.63
2022-08-31T09:44:21.725Z,101944.81
2022-08-31T09:46:49.602Z,101946.53
2022-08-31T09:49:25.056Z,101941.09
2022-08-31T09:51:52.165Z,101948.31
2022-08-31T09:54:46.198Z,101947.75
2022-08-31T09:57:13.882Z,101944.97
2022-08-31T09:59:48.265Z,101942.25
2022-08-31T10:02:26.551Z,101946.69
2022-08-31T10:04:55.209Z,101953.94
2022-08-31T10:07:24.933Z,101947.44
2022-08-31T10:09:57.537Z,101948.72
2022-08-31T10:12:36.217Z,101943.28
2022-08-31T10:15:15.382Z,101939.69
2022-08-31T10:17:45.223Z,101937.66
2022-08-31T10:20:18.521Z,101947.34
2022-08-31T10:23:08.781Z,101945.44
2022-08-31T10:25:42.870Z,101942.75
2022-08-31T10:28:14.752Z,101927.31
2022-08-31T10:30:42.172Z,101942.41
2022-08-31T10:33:14.827Z,101936.56
2022-08-31T10:35:48.841Z,101941.81
2022-08-31T10:38:24.084Z,101939.97
2022-08-31T10:41:00.772Z,101946.72
2022-08-31T10:43:41.988Z,101948.41
2022-08-31T10:46:08.448Z,101948.41
2022-08-31T10:48:37.751Z,101952.84
2022-08-31T10:51:19.338Z,101953.66
2022-08-31T10:53:52.198Z,101942.44
2022-08-31T10:56:39.742Z,101948.75
2022-08-31T10:59:12.754Z,101952.34
2022-08-31T11:01:56.068Z,101939.66
2022-08-31T11:04:29.331Z,101941.59
2022-08-31T11:07:00.625Z,101931.31
2022-08-31T11:09:34.593Z,101937.06
2022-08-31T11:12:07.081Z,101926.69
2022-08-31T11:14:45.670Z,101925.91
2022-08-31T11:17:38.410Z,101925.91
2022-08-31T11:20:19.820Z,101920.38
2022-08-31T11:23:05.591Z,101917.59
2022-08-31T11:25:31.944Z,101924.84
2022-08-31T11:28:13.753Z,101919.28
2022-08-31T11:30:45.805Z,101917.22
2022-08-31T11:33:22.214Z,101914.84
2022-08-31T11:36:04.074Z,101919.22
2022-08-31T11:38:45.134Z,101907.09
2022-08-31T11:41:31.431Z,101905.44
2022-08-31T11:43:57.835Z,101909.41
2022-08-31T11:46:27.674Z,101911.53
2022-08-31T11:48:54.832Z,101904.34
2022-08-31T11:51:36.039Z,101900.78
2022-08-31T11:54:11.294Z,101900.78
2022-08-31T11:56:39.289Z,101898.38
2022-08-31T11:59:27.315Z,101896.44
2022-08-31T12:01:58.250Z,101903.59
2022-08-31T12:04:41.954Z,101893.78
2022-08-31T12:07:11.087Z,101887.81
2022-08-31T12:09:37.959Z,101881.88
2022-08-31T12:12:25.025Z,101876.91
2022-08-31T12:14:51.395Z,101878.91
2022-08-31T12:17:21.726Z,101872.16
2022-08-31T12:20:02.303Z,101867.84
2022-08-31T12:22:47.413Z,101873.94
2022-08-31T12:25:22.740Z,101867.94
2022-08-31T12:28:05.556Z,101862.75
2022-08-31T12:30:32.155Z,101865.97
2022-08-31T12:33:08.073Z,101862.03
2022-08-31T12:35:36.729Z,101869.66
2022-08-31T12:38:04.707Z,101864.59
2022-08-31T12:40:33.051Z,101855.41
2022-08-31T12:43:08.581Z,101871.38
2022-08-31T12:45:38.019Z,101858.22
2022-08-31T12:48:23.080Z,101857.41
2022-08-31T12:50:56.844Z,101863.00
2022-08-31T12:53:38.012Z,101855.88
2022-08-31T12:56:10.290Z,101856.72
2022-08-31T12:58:51.841Z,101861.09
2022-08-31T13:01:21.118Z,101860.25
2022-08-31T13:03:54.024Z,101857.84
2022-08-31T13:06:26.335Z,101853.81
2022-08-31T13:08:56.159Z,101863.75
2022-08-31T13:11:26.142Z,101856.13
2022-08-31T13:14:09.840Z,101852.63
2022-08-31T13:16:38.866Z,101843.97
2022-08-31T13:19:06.970Z,101847.97
2022-08-31T13:21:33.932Z,101845.59
2022-08-31T13:24:07.101Z,101837.19
2022-08-31T13:26:36.446Z,101839.53
2022-08-31T13:29:07.494Z,101841.91
2022-08-31T13:31:36.012Z,101841.94
2022-08-31T13:34:07.218Z,101840.34
2022-08-31T13:36:37.849Z,101833.16
2022-08-31T13:39:15.745Z,101843.78
2022-08-31T13:41:54.441Z,101842.41
2022-08-31T13:44:22.489Z,101849.88
2022-08-31T13:47:01.016Z,101843.50
2022-08-31T13:49:35.641Z,101831.50
2022-08-31T13:52:21.221Z,101840.31
2022-08-31T13:54:58.541Z,101819.38
2022-08-31T13:57:34.895Z,101824.50
2022-08-31T14:00:20.599Z,101829.88
2022-08-31T14:02:47.034Z,101843.50
2022-08-31T14:05:28.074Z,101843.16
2022-08-31T14:07:56.471Z,101830.75
2022-08-31T14:10:26.129Z,101828.75
2022-08-31T14:12:57.369Z,101830.44
2022-08-31T14:15:36.015Z,101833.94
2022-08-31T14:18:24.462Z,101828.88
2022-08-31T14:21:23.799Z,101822.91
2022-08-31T14:23:53.574Z,101822.97
2022-08-31T14:26:21.457Z,101812.28
2022-08-31T14:28:49.977Z,101817.84
2022-08-31T14:31:31.534Z,101827.06
2022-08-31T14:34:23.220Z,101824.34
2022-08-31T14:36:57.849Z,101822.38
2022-08-31T14:39:32.773Z,101818.00
2022-08-31T14:42:06.087Z,101810.38
2022-08-31T14:44:33.998Z,101817.56
2022-08-31T14:47:00.912Z,101823.50
2022-08-31T14:49:31.551Z,101822.72
2022-08-31T14:52:06.102Z,101820.38
2022-08-31T14:54:35.009Z,101816.81
2022-08-31T14:57:06.071Z,101819.59
2022-08-31T14:59:33.124Z,101820.78
2022-08-31T15:01:59.490Z,101826.00
2022-08-31T15:04:28.295Z,101817.25
2022-08-31T15:07:09.666Z,101817.19
2022-08-31T15:09:40.445Z,101817.94
2022-08-31T15:12:07.963Z,101813.16
2022-08-31T15:14:37.956Z,101815.94
2022-08-31T15:17:06.688Z,101816.31
2022-08-31T15:19:39.166Z,101813.97
2022-08-31T15:22:09.133Z,101811.50
2022-08-31T15:24:36.562Z,101815.03
2022-08-31T15:27:03.168Z,101817.63
2022-08-31T15:29:30.895Z,101816.13
2022-08-31T15:31:58.513Z,101807.81
2022-08-31T15:34:30.123Z,101802.97
2022-08-31T15:37:02.153Z,101806.84
2022-08-31T15:39:34.943Z,101803.72
2022-08-31T15:42:08.977Z,101806.56
2022-08-31T15:44:36.239Z,101805.84
2022-08-31T15:47:21.835Z,101800.19
2022-08-31T15:49:48.211Z,101801.09
2022-08-31T15:52:14.622Z,101800.34
2022-08-31T15:54:41.193Z,101801.53
2022-08-31T15:57:08.003Z,101789.19
2022-08-31T15:59:43.476Z,101792.53
2022-08-31T16:02:13.190Z,101787.72
2022-08-31T16:04:43.209Z,101792.88
2022-08-31T16:07:10.990Z,101794.88
2022-08-31T16:09:40.801Z,101783.34
2022-08-31T16:12:10.878Z,101785.34
2022-08-31T16:14:38.318Z,101794.47
2022-08-31T16:17:06.017Z,101789.38
2022-08-31T16:19:35.990Z,101786.97
2022-08-31T16:22:03.474Z,101785.34
2022-08-31T16:24:35.930Z,101779.78
2022-08-31T16:27:02.955Z,101782.09
2022-08-31T16:29:32.347Z,101785.75
2022-08-31T16:31:58.783Z,101779.00
2022-08-31T16:34:25.551Z,101769.75
2022-08-31T16:36:52.942Z,101774.13
2022-08-31T16:39:19.825Z,101776.50
2022-08-31T16:41:46.570Z,101777.31
2022-08-31T16:44:19.986Z,101770.75
2022-08-31T16:46:46.935Z,101769.28
2022-08-31T16:49:31.743Z,101771.28
2022-08-31T16:52:00.606Z,101772.81
2022-08-31T16:54:28.554Z,101763.91
2022-08-31T16:56:57.463Z,101767.94
2022-08-31T16:59:25.451Z,101762.75
2022-08-31T17:01:51.857Z,101766.78
2022-08-31T17:04:41.191Z,101767.47
2022-08-31T17:07:06.364Z,101757.09
2022-08-31T17:09:32.772Z,101756.97
2022-08-31T17:12:00.636Z,101761.56
2022-08-31T17:14:32.153Z,101764.19
2022-08-31T17:17:03.370Z,101764.81
2022-08-31T17:19:31.253Z,101764.06
2022-08-31T17:21:59.220Z,101775.28
2022-08-31T17:24:28.270Z,101764.91
2022-08-31T17:26:59.650Z,101760.09
2022-08-31T17:29:27.430Z,101760.78
2022-08-31T17:31:55.677Z,101763.19
2022-08-31T17:34:23.804Z,101767.25
2022-08-31T17:36:50.847Z,101757.56
2022-08-31T17:39:18.163Z,101757.94
2022-08-31T17:41:45.224Z,101765.47
2022-08-31T17:44:16.393Z,101768.69
2022-08-31T17:46:43.866Z,101763.94
2022-08-31T17:49:10.572Z,101768.72
2022-08-31T17:51:38.471Z,101771.88
2022-08-31T17:54:07.572Z,101769.53
2022-08-31T17:56:47.609Z,101768.72
2022-08-31T17:59:16.497Z,101776.28
2022-08-31T18:01:43.081Z,101775.19
2022-08-31T18:04:09.503Z,101781.97
2022-08-31T18:06:36.034Z,101788.72
2022-08-31T18:09:02.455Z,101785.03
2022-08-31T18:11:29.154Z,101792.22
2022-08-31T18:13:55.897Z,101791.78
2022-08-31T18:16:22.350Z,101785.03
2022-08-31T18:18:49.601Z,101785.38
2022-08-31T18:21:17.127Z,101790.13
2022-08-31T18:23:43.525Z,101790.28
2022-08-31T18:26:35.996Z,101788.72
2022-08-31T18:29:04.001Z,101791.94
2022-08-31T18:31:30.684Z,101787.72
2022-08-31T18:33:58.135Z,101796.38
2022-08-31T18:36:25.876Z,101792.72
2022-08-31T18:38:53.685Z,101794.47
2022-08-31T18:41:39.545Z,101788.53
2022-08-31T18:44:24.851Z,101796.72
2022-08-31T18:46:51.420Z,101791.88
2022-08-31T18:49:22.143Z,101800.56
2022-08-31T18:51:52.692Z,101797.09
2022-08-31T18:54:20.363Z,101794.13
2022-08-31T18:56:47.250Z,101799.25
2022-08-31T18:59:14.005Z,101803.31
2022-08-31T19:01:40.469Z,101797.53
2022-08-31T19:04:07.477Z,101799.13
2022-08-31T19:06:34.587Z,101807.28
2022-08-31T19:09:01.780Z,101794.59
2022-08-31T19:11:28.161Z,101789.00
2022-08-31T19:13:54.665Z,101788.94
2022-08-31T19:16:22.520Z,101791.97
2022-08-31T19:18:49.047Z,101787.28
2022-08-31T19:21:17.261Z,101788.66
2022-08-31T19:23:44.077Z,101789.50
2022-08-31T19:26:10.457Z,101793.13
2022-08-31T19:28:36.827Z,101791.41
2022-08-31T19:31:03.209Z,101786.25
2022-08-31T19:33:29.843Z,101789.44
2022-08-31T19:36:03.530Z,101797.19
2022-08-31T19:38:31.358Z,101799.78
2022-08-31T19:40:58.344Z,101804.47
2022-08-31T19:46:16.004Z,101814.56
2022-08-31T19:48:44.459Z,101812.69
2022-08-31T19:51:11.866Z,101808.56
2022-08-31T19:53:42.525Z,101806.06
2022-08-31T19:56:16.010Z,101807.88
2022-08-31T19:58:42.985Z,101807.00
2022-08-31T20:01:10.382Z,101812.25
2022-08-31T20:03:37.288Z,101817.59
2022-08-31T20:06:07.821Z,101814.00
2022-08-31T20:08:35.421Z,101811.97
2022-08-31T20:11:02.532Z,101821.75
2022-08-31T20:13:28.973Z,101820.56
2022-08-31T20:15:56.111Z,101818.47
2022-08-31T20:18:23.606Z,101811.09
2022-08-31T20:20:51.021Z,101815.41
2022-08-31T20:23:18.807Z,101813.38
2022-08-31T20:25:46.506Z,101823.97
2022-08-31T20:28:13.250Z,101808.16
2022-08-31T20:30:40.768Z,101809.38
2022-08-31T20:33:08.144Z,101810.91
2022-08-31T20:35:36.336Z,101812.97
2022-08-31T20:38:02.858Z,101802.28
2022-08-31T20:40:29.570Z,101807.97
2022-08-31T20:42:56.093Z,101811.03
2022-08-31T20:45:22.922Z,101807.53
2022-08-31T20:48:07.774Z,101811.84
2022-08-31T20:50:35.264Z,101807.66
2022-08-31T20:53:01.768Z,101808.34
2022-08-31T20:55:28.138Z,101810.22
2022-08-31T20:57:54.898Z,101812.09
2022-08-31T21:00:21.331Z,101809.75
2022-08-31T21:02:49.918Z,101812.38
2022-08-31T21:08:04.304Z,101812.81
2022-08-31T21:10:36.242Z,101817.09
2022-08-31T21:13:03.664Z,101815.69
2022-08-31T21:15:30.074Z,101826.00
2022-08-31T21:17:57.000Z,101827.88
2022-08-31T21:20:25.435Z,101819.41
2022-08-31T21:22:51.976Z,101820.03
2022-08-31T21:25:18.713Z,101820.56
2022-08-31T21:27:47.037Z,101822.09
2022-08-31T21:30:13.576Z,101822.16
2022-08-31T21:32:40.619Z,101822.91
2022-08-31T21:35:09.953Z,101823.72
2022-08-31T21:37:36.301Z,101823.59
2022-08-31T21:40:03.550Z,101821.16
2022-08-31T21:42:30.077Z,101813.50
2022-08-31T21:44:56.404Z,101822.66
2022-08-31T21:47:22.807Z,101829.16
2022-08-31T21:49:53.208Z,101829.84
2022-08-31T21:52:19.645Z,101833.88
2022-08-31T21:54:47.899Z,101830.38
2022-08-31T21:57:15.571Z,101837.16
2022-08-31T21:59:42.052Z,101838.53
2022-08-31T22:02:11.090Z,101834.81
2022-08-31T22:04:39.438Z,101833.59
2022-08-31T22:07:09.492Z,101831.72
2022-08-31T22:09:36.439Z,101835.38
2022-08-31T22:12:07.313Z,101842.31
2022-08-31T22:14:37.897Z,101833.69
2022-08-31T22:17:06.963Z,101842.34
2022-08-31T22:19:36.004Z,101849.25
2022-08-31T22:22:05.073Z,101848.16
2022-08-31T22:24:32.542Z,101850.03
2022-08-31T22:27:01.580Z,101858.00
2022-08-31T22:29:29.835Z,101859.25
2022-08-31T22:31:58.388Z,101862.94
2022-08-31T22:34:25.242Z,101852.38
2022-08-31T22:36:52.260Z,101859.91
2022-08-31T22:39:23.086Z,101856.47
2022-08-31T22:41:49.909Z,101863.75
2022-08-31T22:44:18.308Z,101860.53
2022-08-31T22:46:45.319Z,101862.94
2022-08-31T22:49:12.722Z,101860.28
2022-08-31T22:51:40.762Z,101847.63
2022-08-31T22:54:07.841Z,101859.00
2022-08-31T22:56:35.063Z,101859.19
2022-08-31T22:59:05.263Z,101860.38
2022-08-31T23:01:33.418Z,101851.22
2022-08-31T23:04:01.295Z,101846.06
2022-08-31T23:06:29.860Z,101854.53
2022-08-31T23:08:57.325Z,101861.09
2022-08-31T23:11:24.542Z,101852.25
2022-08-31T23:13:52.696Z,101852.84
2022-08-31T23:16:25.005Z,101851.03
2022-08-31T23:18:52.256Z,101847.69
2022-08-31T23:21:18.966Z,101848.63
2022-08-31T23:23:45.774Z,101841.28
2022-08-31T23:26:12.522Z,101847.13
2022-08-31T23:28:39.680Z,101844.44
2022-08-31T23:31:09.912Z,101842.56
2022-08-31T23:33:36.408Z,101843.88
2022-08-31T23:36:03.703Z,101841.81
2022-08-31T23:38:31.121Z,101843.72
2022-08-31T23:40:57.581Z,101838.50
2022-08-31T23:43:25.030Z,101843.88
2022-08-31T23:45:52.432Z,101837.09
2022-08-31T23:48:19.242Z,101843.41
2022-08-31T23:50:46.301Z,101841.47
2022-08-31T23:53:14.594Z,101838.31
2022-08-31T23:55:44.759Z,101840.25
2022-08-31T23:58:14.009Z,101839.34
